createdAt,value
2019-06-27T00:00:01.899Z,3.30
2019-06-27T00:05:05.870Z,3.17
2019-06-27T00:10:09.736Z,3.83
2019-06-27T00:15:14.877Z,3.90
2019-06-27T00:20:18.163Z,3.60
2019-06-27T00:25:21.778Z,3.77
2019-06-27T00:30:25.317Z,2.40
2019-06-27T00:42:19.652Z,3.67
2019-06-27T00:47:22.595Z,2.90
2019-06-27T00:52:25.587Z,1.87
2019-06-27T00:57:29.285Z,2.83
2019-06-27T01:02:32.186Z,2.80
2019-06-27T01:07:35.099Z,2.83
2019-06-27T01:12:38.356Z,2.43
2019-06-27T01:17:41.284Z,3.47
2019-06-27T01:22:44.252Z,3.30
2019-06-27T01:27:47.029Z,3.17
2019-06-27T01:32:50.290Z,2.53
2019-06-27T01:37:53.611Z,4.00
2019-06-27T01:42:56.858Z,2.70
2019-06-27T01:48:00.399Z,2.93
2019-06-27T01:53:03.016Z,2.93
2019-06-27T01:58:07.141Z,2.53
2019-06-27T02:03:12.354Z,2.87
2019-06-27T02:08:15.845Z,2.60
2019-06-27T02:13:19.430Z,2.83
2019-06-27T02:18:23.006Z,2.50
2019-06-27T02:23:26.058Z,2.93
2019-06-27T02:28:29.347Z,2.37
2019-06-27T02:33:31.957Z,3.00
2019-06-27T02:38:35.285Z,3.30
2019-06-27T02:43:38.884Z,3.50
2019-06-27T02:48:42.167Z,3.17
2019-06-27T02:53:45.479Z,4.03
2019-06-27T02:58:51.131Z,3.00
2019-06-27T03:03:54.450Z,2.83
2019-06-27T03:08:57.765Z,2.90
2019-06-27T03:14:00.330Z,2.67
2019-06-27T03:19:04.075Z,3.35
2019-06-27T03:24:07.300Z,2.90
2019-06-27T03:29:10.829Z,3.07
2019-06-27T03:34:14.023Z,2.50
2019-06-27T03:39:17.334Z,3.50
2019-06-27T03:44:20.600Z,3.10
2019-06-27T03:49:23.775Z,3.17
2019-06-27T03:54:27.024Z,2.53
2019-06-27T03:59:30.620Z,3.00
2019-06-27T04:04:33.999Z,3.30
2019-06-27T04:09:37.115Z,2.73
2019-06-27T04:14:40.799Z,2.70
2019-06-27T04:19:44.465Z,3.10
2019-06-27T04:24:47.761Z,4.07
2019-06-27T04:29:51.071Z,4.07
2019-06-27T04:34:53.976Z,3.70
2019-06-27T04:39:57.495Z,3.70
2019-06-27T04:45:01.056Z,4.30
2019-06-27T04:55:07.370Z,3.33
2019-06-27T05:00:14.956Z,3.73
2019-06-27T05:05:18.246Z,3.50
2019-06-27T05:10:21.903Z,3.57
2019-06-27T05:15:25.488Z,3.43
2019-06-27T05:20:28.797Z,3.40
2019-06-27T05:25:31.776Z,3.37
2019-06-27T05:30:34.706Z,3.20
2019-06-27T05:35:38.028Z,3.80
2019-06-27T05:40:41.295Z,3.73
2019-06-27T05:45:44.499Z,3.70
2019-06-27T05:50:47.712Z,3.30
2019-06-27T05:55:51.015Z,3.63
2019-06-27T06:00:54.387Z,2.93
2019-06-27T06:05:57.097Z,3.20
2019-06-27T06:11:00.397Z,4.47
2019-06-27T06:16:03.609Z,3.60
2019-06-27T06:21:06.508Z,3.90
2019-06-27T06:26:09.476Z,3.10
2019-06-27T06:31:13.132Z,2.70
2019-06-27T06:36:16.444Z,3.20
2019-06-27T06:41:19.684Z,2.83
2019-06-27T06:46:22.940Z,2.30
2019-06-27T06:51:25.558Z,2.77
2019-06-27T06:56:30.418Z,2.60
2019-06-27T07:01:33.669Z,2.10
2019-06-27T07:06:36.886Z,2.03
2019-06-27T07:11:40.292Z,2.00
2019-06-27T07:16:43.639Z,2.03
2019-06-27T07:21:47.228Z,1.60
2019-06-27T07:26:50.482Z,2.03
2019-06-27T07:31:54.962Z,1.63
2019-06-27T07:37:01.044Z,1.70
2019-06-27T07:42:04.648Z,1.67
2019-06-27T07:47:07.574Z,1.83
2019-06-27T07:52:10.937Z,2.00
2019-06-27T07:57:14.514Z,1.73
2019-06-27T08:02:17.740Z,1.80
2019-06-27T08:07:21.438Z,1.97
2019-06-27T08:12:25.247Z,1.77
2019-06-27T08:17:28.857Z,1.90
2019-06-27T08:22:31.800Z,1.80
2019-06-27T08:27:35.169Z,2.30
2019-06-27T08:32:38.767Z,2.83
2019-06-27T08:37:42.054Z,1.20
2019-06-27T08:42:45.697Z,1.47
2019-06-27T08:47:49.023Z,0.90
2019-06-27T08:52:52.314Z,1.20
2019-06-27T08:57:55.704Z,0.80
2019-06-27T09:02:58.963Z,1.40
2019-06-27T09:08:02.638Z,1.20
2019-06-27T09:13:05.553Z,1.03
2019-06-27T09:18:09.980Z,1.00
2019-06-27T09:23:41.539Z,1.53
2019-06-27T09:29:04.286Z,1.40
2019-06-27T09:34:23.970Z,1.33
2019-06-27T09:39:51.433Z,1.37
2019-06-27T09:45:28.644Z,1.60
2019-06-27T09:51:03.326Z,1.07
2019-06-27T09:56:13.244Z,1.50
2019-06-27T10:01:48.694Z,1.33
2019-06-27T10:07:23.187Z,1.33
2019-06-27T10:12:58.157Z,1.00
2019-06-27T10:18:15.497Z,0.90
2019-06-27T10:23:50.814Z,1.70
2019-06-27T10:29:26.133Z,1.03
2019-06-27T10:34:56.037Z,1.20
2019-06-27T10:40:31.727Z,0.90
2019-06-27T10:45:46.091Z,1.00
2019-06-27T10:50:57.105Z,1.20
2019-06-27T10:56:01.172Z,1.07
2019-06-27T11:01:05.193Z,1.07
2019-06-27T11:06:08.128Z,1.07
2019-06-27T11:11:12.295Z,1.00
2019-06-27T11:16:16.017Z,1.60
2019-06-27T11:21:21.386Z,1.47
2019-06-27T11:26:24.131Z,1.53
2019-06-27T11:31:27.311Z,1.00
2019-06-27T11:36:30.558Z,1.47
2019-06-27T11:41:34.096Z,1.20
2019-06-27T11:46:36.674Z,1.80
2019-06-27T11:51:40.243Z,1.27
2019-06-27T11:56:43.614Z,1.40
2019-06-27T12:01:46.921Z,1.33
2019-06-27T12:06:50.066Z,1.50
2019-06-27T12:11:52.283Z,1.53
2019-06-27T12:16:54.816Z,1.70
2019-06-27T12:21:58.121Z,1.40
2019-06-27T12:27:01.445Z,1.70
2019-06-27T12:32:05.062Z,1.90
2019-06-27T12:37:08.634Z,1.10
2019-06-27T12:42:12.198Z,1.57
2019-06-27T12:47:15.514Z,1.67
2019-06-27T12:52:19.071Z,1.97
2019-06-27T12:57:22.135Z,1.40
2019-06-27T13:02:25.719Z,1.80
2019-06-27T13:07:28.825Z,1.60
2019-06-27T13:12:32.423Z,1.53
2019-06-27T13:17:35.657Z,1.93
2019-06-27T13:22:39.335Z,1.10
2019-06-27T13:27:42.511Z,1.50
2019-06-27T13:32:46.137Z,1.20
2019-06-27T13:37:49.688Z,1.60
2019-06-27T13:42:55.631Z,1.23
2019-06-27T13:47:58.868Z,1.63
2019-06-27T13:53:02.162Z,1.43
2019-06-27T13:58:05.138Z,1.40
2019-06-27T14:03:07.977Z,1.40
2019-06-27T14:08:11.389Z,1.80
2019-06-27T14:13:14.759Z,1.90
2019-06-27T14:18:21.112Z,2.17
2019-06-27T14:23:24.675Z,2.20
2019-06-27T14:28:27.925Z,1.57
2019-06-27T14:33:30.913Z,2.27
2019-06-27T14:38:33.964Z,1.97
2019-06-27T14:43:38.016Z,1.80
2019-06-27T14:48:41.138Z,1.60
2019-06-27T14:53:44.653Z,1.83
2019-06-27T14:58:47.925Z,1.73
2019-06-27T15:03:51.311Z,1.97
2019-06-27T15:08:55.117Z,1.47
2019-06-27T15:13:58.392Z,2.03
2019-06-27T15:19:01.981Z,1.87
2019-06-27T15:24:06.277Z,1.97
2019-06-27T15:29:09.501Z,1.90
2019-06-27T15:34:13.078Z,2.30
2019-06-27T15:39:16.019Z,2.57
2019-06-27T15:44:20.734Z,1.93
2019-06-27T15:49:23.773Z,3.00
2019-06-27T15:54:27.027Z,3.00
2019-06-27T15:59:30.668Z,2.33
2019-06-27T16:04:34.806Z,2.50
2019-06-27T16:09:39.196Z,1.90
2019-06-27T16:14:43.014Z,2.60
2019-06-27T16:19:45.958Z,2.57
2019-06-27T16:24:49.609Z,2.50
2019-06-27T16:29:53.136Z,2.03
2019-06-27T16:34:56.668Z,1.80
2019-06-27T16:39:59.664Z,2.63
2019-06-27T16:45:03.471Z,2.40
2019-06-27T16:50:07.587Z,2.50
2019-06-27T16:55:13.080Z,2.33
2019-06-27T17:00:17.245Z,2.23
2019-06-27T17:05:21.158Z,2.33
2019-06-27T17:10:24.044Z,2.20
2019-06-27T17:15:27.677Z,3.43
2019-06-27T17:20:31.212Z,3.60
2019-06-27T17:25:34.520Z,2.30
2019-06-27T17:30:37.604Z,2.67
2019-06-27T17:35:40.929Z,2.93
2019-06-27T17:40:44.428Z,2.53
2019-06-27T17:45:47.668Z,2.90
2019-06-27T17:50:51.257Z,2.37
2019-06-27T17:55:54.828Z,3.07
2019-06-27T18:00:58.656Z,1.70
2019-06-27T18:06:02.216Z,2.40
2019-06-27T18:11:05.801Z,2.40
2019-06-27T18:16:08.959Z,2.27
2019-06-27T18:21:12.012Z,2.07
2019-06-27T18:26:15.293Z,2.90
2019-06-27T18:31:18.381Z,2.47
2019-06-27T18:36:22.071Z,3.03
2019-06-27T18:41:25.641Z,1.83
2019-06-27T18:46:28.982Z,2.77
2019-06-27T18:51:32.454Z,1.70
2019-06-27T18:56:35.870Z,2.30
2019-06-27T19:01:38.844Z,1.93
2019-06-27T19:06:41.434Z,2.20
2019-06-27T19:11:45.180Z,2.00
2019-06-27T19:16:48.604Z,2.20
2019-06-27T19:21:59.899Z,2.13
2019-06-27T19:27:03.529Z,2.83
2019-06-27T19:32:06.934Z,2.90
2019-06-27T19:37:13.753Z,2.23
2019-06-27T19:42:17.722Z,2.87
2019-06-27T19:47:23.145Z,2.30
2019-06-27T20:08:35.909Z,2.17
2019-06-27T20:31:26.456Z,2.10
2019-06-27T21:29:07.031Z,2.10
2019-06-27T21:34:10.241Z,2.70
2019-06-27T21:39:13.882Z,2.70
2019-06-27T21:44:17.282Z,2.90
2019-06-27T21:49:20.557Z,2.57
2019-06-27T21:54:23.873Z,2.40
2019-06-27T21:59:27.158Z,2.27
2019-06-27T22:04:30.718Z,2.43
2019-06-27T22:09:34.355Z,3.47
2019-06-27T22:14:36.981Z,3.20
2019-06-27T22:19:40.377Z,2.50
2019-06-27T22:24:44.022Z,2.60
2019-06-27T22:29:46.995Z,2.20
2019-06-27T22:34:50.233Z,2.43
2019-06-27T22:40:11.951Z,2.40
2019-06-27T22:45:33.597Z,2.93
2019-06-27T22:51:01.781Z,2.50
2019-06-27T22:56:05.408Z,2.30
2019-06-27T23:01:08.639Z,2.47
2019-06-27T23:06:12.146Z,2.20
2019-06-27T23:11:15.761Z,2.83
2019-06-27T23:16:19.189Z,3.43
2019-06-27T23:21:22.418Z,2.00
2019-06-27T23:26:27.090Z,3.20
2019-06-27T23:31:30.551Z,2.97
2019-06-27T23:36:33.131Z,2.60
2019-06-27T23:41:36.097Z,3.93
2019-06-27T23:46:41.081Z,3.00
2019-06-27T23:51:46.140Z,2.93
2019-06-27T23:56:49.098Z,2.20
